createdAt,value
2022-12-23T00:01:22.481Z,77.10
2022-12-23T00:03:50.822Z,78.20
2022-12-23T00:06:19.747Z,78.00
2022-12-23T00:08:49.109Z,78.90
2022-12-23T00:11:19.434Z,79.30
2022-12-23T00:14:05.162Z,80.10
2022-12-23T00:16:36.261Z,81.30
2022-12-23T00:19:04.349Z,82.10
2022-12-23T00:21:32.478Z,82.90
2022-12-23T00:24:01.872Z,83.40
2022-12-23T00:26:29.924Z,83.70
2022-12-23T00:28:58.885Z,83.70
2022-12-23T00:31:27.275Z,84.10
2022-12-23T00:33:55.378Z,85.10
2022-12-23T00:36:25.333Z,85.10
2022-12-23T00:39:10.796Z,85.70
2022-12-23T00:41:58.010Z,86.00
2022-12-23T00:44:26.066Z,86.20
2022-12-23T00:46:54.093Z,86.50
2022-12-23T00:49:39.916Z,86.70
2022-12-23T00:52:10.756Z,87.10
2022-12-23T00:54:38.979Z,87.60
2022-12-23T00:57:08.439Z,87.50
2022-12-23T00:59:36.472Z,87.90
2022-12-23T01:02:22.164Z,87.90
2022-12-23T01:05:07.597Z,87.80
2022-12-23T01:07:36.123Z,87.60
2022-12-23T01:10:04.815Z,88.40
2022-12-23T01:12:34.396Z,88.10
2022-12-23T01:15:02.532Z,88.30
2022-12-23T01:17:30.894Z,87.70
2022-12-23T01:19:58.900Z,87.10
2022-12-23T01:22:26.903Z,87.60
2022-12-23T01:24:54.886Z,87.70
2022-12-23T01:27:22.911Z,88.20
2022-12-23T01:29:52.261Z,87.80
2022-12-23T01:32:20.354Z,87.90
2022-12-23T01:34:48.432Z,88.40
2022-12-23T01:37:16.567Z,88.70
2022-12-23T01:39:44.553Z,88.80
2022-12-23T01:42:32.034Z,89.20
2022-12-23T01:45:02.778Z,89.00
2022-12-23T01:47:39.504Z,89.40
2022-12-23T01:50:12.658Z,88.90
2022-12-23T01:52:46.598Z,88.90
2022-12-23T01:55:17.088Z,88.90
2022-12-23T01:57:47.337Z,88.50
2022-12-23T02:00:35.223Z,87.90
2022-12-23T02:03:20.786Z,88.00
2022-12-23T02:05:51.061Z,88.00
2022-12-23T02:08:48.123Z,87.80
2022-12-23T02:11:35.411Z,88.10
2022-12-23T02:14:39.051Z,88.30
2022-12-23T02:17:15.943Z,88.60
2022-12-23T02:20:27.455Z,88.30
2022-12-23T02:23:25.503Z,88.20
2022-12-23T02:26:09.958Z,88.20
2022-12-23T02:29:03.801Z,88.00
2022-12-23T02:31:40.111Z,88.00
2022-12-23T02:34:15.761Z,88.00
2022-12-23T02:36:50.801Z,87.90
2022-12-23T02:39:28.305Z,88.30
2022-12-23T02:42:00.844Z,88.40
2022-12-23T02:44:33.706Z,88.00
2022-12-23T02:47:09.546Z,87.90
2022-12-23T02:49:42.028Z,87.90
2022-12-23T02:52:17.172Z,88.40
2022-12-23T02:54:50.037Z,88.50
2022-12-23T02:57:22.670Z,88.20
2022-12-23T02:59:52.876Z,87.90
2022-12-23T03:02:22.453Z,87.40
2022-12-23T03:04:50.711Z,88.40
2022-12-23T03:07:22.783Z,88.60
2022-12-23T03:10:00.395Z,88.60
2022-12-23T03:12:38.796Z,87.90
2022-12-23T03:15:23.111Z,88.00
2022-12-23T03:18:04.113Z,87.60
2022-12-23T03:20:38.938Z,88.30
2022-12-23T03:23:14.807Z,88.60
2022-12-23T03:25:52.607Z,88.10
2022-12-23T03:28:26.592Z,88.00
2022-12-23T03:33:27.863Z,89.10
2022-12-23T03:36:00.746Z,89.90
2022-12-23T03:38:30.560Z,89.60
2022-12-23T03:41:01.929Z,89.60
2022-12-23T03:43:36.318Z,88.90
2022-12-23T03:46:10.132Z,88.50
2022-12-23T03:48:43.860Z,87.10
2022-12-23T03:51:16.231Z,87.10
2022-12-23T03:53:50.186Z,87.40
2022-12-23T03:56:24.455Z,87.10
2022-12-23T03:58:57.452Z,86.60
2022-12-23T04:01:32.597Z,86.60
2022-12-23T04:04:06.765Z,85.70
2022-12-23T04:06:41.732Z,85.20
2022-12-23T04:09:10.943Z,85.50
2022-12-23T04:11:39.173Z,85.30
2022-12-23T04:14:08.572Z,86.00
2022-12-23T04:16:36.818Z,85.10
2022-12-23T04:19:06.280Z,85.10
2022-12-23T04:21:34.308Z,84.70
2022-12-23T04:24:02.324Z,84.30
2022-12-23T04:26:30.333Z,84.20
2022-12-23T04:28:58.365Z,83.60
2022-12-23T04:31:26.411Z,83.20
2022-12-23T04:33:54.457Z,82.30
2022-12-23T04:36:23.832Z,82.60
2022-12-23T04:38:51.804Z,83.10
2022-12-23T04:41:19.781Z,82.60
2022-12-23T04:43:52.808Z,83.40
2022-12-23T04:46:21.909Z,84.70
2022-12-23T04:48:49.984Z,84.40
2022-12-23T04:51:18.027Z,84.40
2022-12-23T04:53:47.389Z,84.80
2022-12-23T04:56:15.405Z,84.70
2022-12-23T04:58:43.412Z,85.90
2022-12-23T05:01:12.494Z,86.20
2022-12-23T05:03:41.392Z,86.60
2022-12-23T05:06:09.978Z,86.50
2022-12-23T05:08:37.998Z,86.40
2022-12-23T05:11:07.543Z,86.60
2022-12-23T05:13:35.566Z,86.30
2022-12-23T05:16:03.639Z,86.40
2022-12-23T05:18:31.668Z,86.20
2022-12-23T05:20:59.677Z,86.40
2022-12-23T05:23:27.645Z,85.50
2022-12-23T05:25:55.872Z,85.50
2022-12-23T05:28:25.289Z,84.40
2022-12-23T05:30:59.401Z,84.90
2022-12-23T05:33:27.730Z,82.80
2022-12-23T05:35:56.074Z,82.50
2022-12-23T05:38:24.231Z,82.70
2022-12-23T05:40:52.471Z,82.80
2022-12-23T05:43:20.885Z,81.90
2022-12-23T05:45:50.433Z,81.60
2022-12-23T05:48:18.561Z,81.50
2022-12-23T05:50:46.593Z,80.40
2022-12-23T05:53:14.593Z,80.30
2022-12-23T05:55:42.603Z,79.50
2022-12-23T05:58:10.691Z,79.50
2022-12-23T06:00:39.035Z,79.50
2022-12-23T06:03:08.647Z,78.30
2022-12-23T06:05:38.871Z,78.10
2022-12-23T06:08:07.245Z,77.30
2022-12-23T06:10:35.241Z,77.00
2022-12-23T06:13:03.203Z,77.00
2022-12-23T06:15:31.286Z,76.40
2022-12-23T06:17:59.562Z,75.80
2022-12-23T06:20:28.973Z,76.20
2022-12-23T06:22:56.949Z,74.70
2022-12-23T06:25:24.939Z,74.60
2022-12-23T06:27:52.972Z,74.90
2022-12-23T06:30:21.044Z,74.70
2022-12-23T06:32:49.062Z,73.10
2022-12-23T06:35:17.114Z,74.00
2022-12-23T06:37:46.487Z,74.60
2022-12-23T06:40:15.079Z,76.70
2022-12-23T06:42:43.119Z,79.40
2022-12-23T06:45:12.112Z,80.90
2022-12-23T06:47:40.219Z,83.10
2022-12-23T06:50:09.952Z,83.30
2022-12-23T06:52:37.992Z,83.30
2022-12-23T06:55:08.203Z,83.30
2022-12-23T06:57:36.250Z,84.30
2022-12-23T07:00:04.975Z,83.30
2022-12-23T07:02:33.724Z,82.70
2022-12-23T07:05:01.826Z,80.50
2022-12-23T07:07:32.247Z,79.30
2022-12-23T07:10:00.387Z,79.00
2022-12-23T07:12:30.183Z,77.40
2022-12-23T07:14:58.187Z,76.60
2022-12-23T07:17:26.213Z,77.60
2022-12-23T07:19:54.247Z,77.90
2022-12-23T07:22:22.280Z,79.20
2022-12-23T07:24:50.333Z,82.10
2022-12-23T07:27:18.376Z,82.30
2022-12-23T07:29:47.811Z,83.80
2022-12-23T07:32:15.871Z,84.00
2022-12-23T07:34:43.852Z,83.10
2022-12-23T07:37:12.071Z,82.80
2022-12-23T07:39:40.056Z,82.80
2022-12-23T07:42:42.851Z,83.90
2022-12-23T07:44:57.484Z,84.20
2022-12-23T07:47:25.524Z,83.30
2022-12-23T07:49:53.538Z,83.80
2022-12-23T07:52:21.589Z,83.80
2022-12-23T07:54:49.631Z,83.60
2022-12-23T07:57:17.635Z,82.70
2022-12-23T07:59:45.638Z,82.70
2022-12-23T08:02:15.091Z,83.20
2022-12-23T08:04:46.248Z,83.20
2022-12-23T08:07:14.671Z,81.90
2022-12-23T08:09:42.697Z,82.20
2022-12-23T08:12:10.904Z,82.30
2022-12-23T08:14:38.932Z,81.80
2022-12-23T08:17:07.036Z,81.40
2022-12-23T08:19:36.505Z,80.60
2022-12-23T08:22:04.789Z,79.50
2022-12-23T08:24:32.886Z,79.30
2022-12-23T08:27:00.861Z,79.30
2022-12-23T08:29:34.170Z,80.10
2022-12-23T08:32:04.182Z,81.60
2022-12-23T08:34:32.346Z,82.60
2022-12-23T08:37:01.852Z,82.80
2022-12-23T08:39:30.255Z,83.50
2022-12-23T08:41:58.248Z,84.40
2022-12-23T08:44:27.826Z,85.20
2022-12-23T08:46:56.027Z,84.50
2022-12-23T08:49:24.129Z,85.60
2022-12-23T08:51:52.254Z,85.80
2022-12-23T08:54:22.250Z,84.60
2022-12-23T08:56:50.299Z,83.50
2022-12-23T08:59:19.836Z,83.50
2022-12-23T09:01:48.748Z,82.90
2022-12-23T09:04:17.046Z,81.80
2022-12-23T09:06:45.499Z,81.40
2022-12-23T09:09:15.500Z,81.50
2022-12-23T09:11:45.357Z,81.10
2022-12-23T09:14:13.479Z,81.30
2022-12-23T09:16:41.891Z,80.50
2022-12-23T09:19:09.993Z,80.20
2022-12-23T09:21:38.147Z,81.10
2022-12-23T09:24:06.981Z,80.80
2022-12-23T09:26:35.051Z,80.60
2022-12-23T09:29:04.444Z,80.40
2022-12-23T09:31:37.286Z,79.50
2022-12-23T09:34:06.441Z,78.80
2022-12-23T09:36:34.651Z,79.30
2022-12-23T09:39:02.703Z,79.40
2022-12-23T09:42:01.377Z,79.50
2022-12-23T09:44:41.628Z,79.00
2022-12-23T09:47:13.984Z,78.10
2022-12-23T09:49:47.711Z,78.60
2022-12-23T09:52:23.377Z,79.00
2022-12-23T09:54:54.481Z,79.40
2022-12-23T09:57:29.778Z,79.30
2022-12-23T10:00:08.733Z,78.70
2022-12-23T10:02:45.445Z,78.00
2022-12-23T10:05:24.878Z,77.50
2022-12-23T10:07:56.858Z,76.00
2022-12-23T10:10:31.345Z,76.70
2022-12-23T10:13:01.896Z,75.30
2022-12-23T10:15:35.073Z,73.20
2022-12-23T10:18:07.327Z,73.10
2022-12-23T10:20:41.785Z,73.50
2022-12-23T10:23:17.370Z,73.30
2022-12-23T10:25:52.580Z,74.10
2022-12-23T10:28:21.202Z,74.90
2022-12-23T10:31:38.032Z,74.40
2022-12-23T10:34:01.456Z,74.80
2022-12-23T10:36:40.681Z,74.10
2022-12-23T10:39:18.551Z,74.70
2022-12-23T10:41:56.383Z,75.60
2022-12-23T10:44:45.510Z,75.90
2022-12-23T10:47:28.550Z,75.90
2022-12-23T10:50:14.137Z,75.90
2022-12-23T10:52:45.382Z,76.50
2022-12-23T10:55:22.228Z,77.90
2022-12-23T10:57:51.725Z,78.80
2022-12-23T11:00:24.347Z,76.60
2022-12-23T11:03:07.450Z,76.50
2022-12-23T11:05:36.322Z,76.10
2022-12-23T11:08:05.134Z,76.10
2022-12-23T11:10:34.793Z,77.50
2022-12-23T11:13:03.063Z,77.50
2022-12-23T11:15:34.440Z,75.10
2022-12-23T11:18:06.957Z,72.10
2022-12-23T11:20:36.621Z,72.30
2022-12-23T11:23:06.226Z,70.80
2022-12-23T11:25:36.954Z,80.30
2022-12-23T11:28:08.604Z,69.90
2022-12-23T11:30:40.038Z,68.90
2022-12-23T11:33:22.074Z,68.80
2022-12-23T11:36:02.080Z,68.70
2022-12-23T11:38:30.365Z,68.10
2022-12-23T11:40:58.827Z,69.80
2022-12-23T11:43:28.523Z,70.70
2022-12-23T11:46:26.175Z,72.20
2022-12-23T11:49:17.033Z,73.70
2022-12-23T11:51:46.143Z,74.70
2022-12-23T11:54:19.797Z,75.50
2022-12-23T11:56:52.501Z,74.60
2022-12-23T11:59:33.793Z,73.30
2022-12-23T12:02:05.281Z,75.10
2022-12-23T12:04:37.262Z,75.70
2022-12-23T12:07:06.784Z,74.70
2022-12-23T12:09:40.469Z,73.60
2022-12-23T12:12:16.212Z,73.90
2022-12-23T12:14:47.432Z,74.40
2022-12-23T12:17:20.665Z,73.30
2022-12-23T12:19:59.518Z,73.90
2022-12-23T12:22:34.566Z,74.60
2022-12-23T12:25:18.875Z,74.50
2022-12-23T12:27:53.339Z,74.50
2022-12-23T12:30:22.253Z,74.90
2022-12-23T12:32:57.736Z,74.10
2022-12-23T12:35:37.757Z,73.40
2022-12-23T12:38:17.040Z,72.40
2022-12-23T12:40:49.607Z,72.60
2022-12-23T12:43:25.176Z,71.30
2022-12-23T12:46:02.058Z,72.40
2022-12-23T12:48:37.341Z,71.80
2022-12-23T12:51:15.530Z,71.70
2022-12-23T12:53:57.188Z,71.10
2022-12-23T12:56:33.968Z,72.00
2022-12-23T12:59:02.079Z,71.90
2022-12-23T13:01:46.179Z,70.70
2022-12-23T13:04:58.817Z,71.80
2022-12-23T13:07:39.205Z,70.50
2022-12-23T13:10:14.993Z,70.70
2022-12-23T13:12:54.115Z,70.00
2022-12-23T13:15:25.427Z,69.80
2022-12-23T13:18:08.787Z,67.80
2022-12-23T13:20:44.227Z,68.80
2022-12-23T13:23:42.415Z,69.60
2022-12-23T13:26:14.086Z,70.90
2022-12-23T13:28:48.817Z,69.70
2022-12-23T13:31:27.108Z,69.70
2022-12-23T13:34:02.396Z,70.50
2022-12-23T13:36:44.202Z,71.10
2022-12-23T13:39:27.161Z,70.50
2022-12-23T13:42:02.989Z,70.50
2022-12-23T13:44:34.893Z,70.80
2022-12-23T13:47:14.521Z,69.40
2022-12-23T13:49:58.311Z,71.00
2022-12-23T13:52:36.145Z,69.70
2022-12-23T13:55:16.998Z,70.70
2022-12-23T13:57:56.570Z,70.20
2022-12-23T14:00:28.581Z,71.10
2022-12-23T14:03:23.840Z,71.00
2022-12-23T14:05:52.962Z,70.80
2022-12-23T14:08:25.864Z,71.00
2022-12-23T14:10:59.603Z,70.90
2022-12-23T14:13:30.096Z,71.90
2022-12-23T14:16:36.150Z,72.20
2022-12-23T14:19:35.615Z,72.60
2022-12-23T14:22:14.676Z,74.70
2022-12-23T14:25:12.385Z,75.10
2022-12-23T14:27:52.687Z,75.70
2022-12-23T14:30:27.236Z,75.70
2022-12-23T14:32:59.738Z,76.80
2022-12-23T14:35:49.399Z,77.20
2022-12-23T14:38:35.129Z,77.40
2022-12-23T14:41:38.263Z,77.20
2022-12-23T14:44:21.131Z,77.60
2022-12-23T14:46:58.997Z,78.80
2022-12-23T14:49:48.166Z,78.70
2022-12-23T14:52:49.139Z,79.20
2022-12-23T14:55:42.416Z,79.20
2022-12-23T14:58:42.840Z,80.10
2022-12-23T15:01:16.131Z,81.00
2022-12-23T15:04:00.774Z,81.00
2022-12-23T15:06:36.205Z,81.00
2022-12-23T15:09:05.741Z,81.40
2022-12-23T15:11:36.245Z,81.40
2022-12-23T15:14:10.824Z,81.00
2022-12-23T15:16:45.033Z,81.30
2022-12-23T15:19:22.441Z,81.80
2022-12-23T15:22:03.258Z,81.80
2022-12-23T15:24:35.792Z,81.80
2022-12-23T15:27:25.754Z,81.10
2022-12-23T15:29:53.885Z,80.90
2022-12-23T15:32:24.629Z,80.00
2022-12-23T15:34:53.854Z,80.40
2022-12-23T15:37:28.575Z,80.80
2022-12-23T15:40:04.803Z,80.60
2022-12-23T15:42:39.886Z,81.20
2022-12-23T15:45:31.277Z,81.20
2022-12-23T15:48:01.218Z,82.10
2022-12-23T15:50:30.085Z,82.50
2022-12-23T15:53:06.114Z,83.70
2022-12-23T15:55:36.319Z,84.20
2022-12-23T15:58:05.089Z,85.20
2022-12-23T16:00:39.892Z,85.90
2022-12-23T16:03:24.766Z,85.80
2022-12-23T16:05:52.979Z,85.80
2022-12-23T16:08:29.754Z,87.00
2022-12-23T16:11:04.619Z,86.10
2022-12-23T16:13:32.771Z,86.30
2022-12-23T16:16:19.017Z,85.80
2022-12-23T16:18:48.520Z,85.90
2022-12-23T16:21:16.780Z,85.80
2022-12-23T16:23:51.263Z,85.70
2022-12-23T16:26:19.742Z,85.20
2022-12-23T16:28:49.846Z,85.20
2022-12-23T16:31:20.133Z,84.60
2022-12-23T16:33:54.448Z,85.40
2022-12-23T16:36:34.036Z,84.90
2022-12-23T16:39:12.143Z,85.20
2022-12-23T16:41:40.197Z,84.80
2022-12-23T16:44:08.219Z,84.80
2022-12-23T16:46:41.642Z,85.00
2022-12-23T16:49:16.498Z,84.80
2022-12-23T16:51:44.957Z,84.30
2022-12-23T16:54:15.862Z,83.30
2022-12-23T16:56:46.477Z,82.20
2022-12-23T16:59:15.106Z,81.20
2022-12-23T17:01:46.243Z,81.20
2022-12-23T17:04:16.062Z,81.20
2022-12-23T17:06:46.431Z,78.70
2022-12-23T17:09:14.639Z,79.30
2022-12-23T17:11:45.136Z,79.20
2022-12-23T17:14:17.121Z,79.10
2022-12-23T17:16:45.677Z,77.60
2022-12-23T17:19:15.360Z,78.10
2022-12-23T17:21:45.524Z,76.30
2022-12-23T17:24:23.190Z,76.30
2022-12-23T17:26:52.127Z,75.20
2022-12-23T17:29:20.645Z,75.30
2022-12-23T17:31:49.614Z,74.60
2022-12-23T17:34:20.540Z,73.30
2022-12-23T17:36:50.644Z,73.80
2022-12-23T17:39:19.370Z,73.60
2022-12-23T17:41:47.891Z,72.50
2022-12-23T17:44:17.624Z,73.70
2022-12-23T17:46:46.911Z,73.60
2022-12-23T17:49:15.043Z,72.80
2022-12-23T17:51:44.679Z,71.50
2022-12-23T17:54:23.115Z,70.50
2022-12-23T17:56:51.529Z,71.40
2022-12-23T17:59:19.675Z,71.00
2022-12-23T18:01:47.907Z,67.60
2022-12-23T18:04:16.006Z,69.00
2022-12-23T18:06:45.491Z,69.00
2022-12-23T18:09:13.658Z,69.50
2022-12-23T18:11:44.885Z,68.10
2022-12-23T18:14:17.472Z,67.10
2022-12-23T18:16:46.374Z,67.20
2022-12-23T18:19:17.597Z,66.60
2022-12-23T18:21:47.502Z,66.20
2022-12-23T18:24:16.027Z,66.90
2022-12-23T18:26:44.411Z,65.70
2022-12-23T18:29:12.525Z,64.60
2022-12-23T18:31:50.542Z,65.20
2022-12-23T18:34:20.712Z,65.80
2022-12-23T18:36:51.664Z,65.70
2022-12-23T18:39:20.594Z,65.70
2022-12-23T18:41:48.726Z,64.90
2022-12-23T18:44:20.518Z,66.00
2022-12-23T18:46:49.150Z,67.00
2022-12-23T18:49:17.525Z,66.50
2022-12-23T18:51:46.183Z,69.90
2022-12-23T18:54:17.082Z,73.60
2022-12-23T18:56:45.644Z,76.90
2022-12-23T18:59:22.540Z,80.40
2022-12-23T19:01:52.440Z,81.90
2022-12-23T19:04:20.862Z,82.90
2022-12-23T19:06:48.959Z,83.60
2022-12-23T19:09:21.746Z,84.80
2022-12-23T19:11:51.293Z,85.60
2022-12-23T19:14:19.540Z,86.60
2022-12-23T19:16:51.574Z,87.40
2022-12-23T19:19:20.781Z,87.10
2022-12-23T19:21:48.811Z,85.40
2022-12-23T19:24:18.245Z,85.50
2022-12-23T19:26:46.257Z,81.30
2022-12-23T19:29:14.290Z,80.70
2022-12-23T19:31:42.609Z,77.50
2022-12-23T19:34:15.085Z,75.80
2022-12-23T19:36:44.061Z,75.80
2022-12-23T19:39:15.984Z,73.40
2022-12-23T19:41:45.907Z,75.30
2022-12-23T19:44:14.026Z,75.70
2022-12-23T19:46:42.221Z,75.80
2022-12-23T19:49:15.758Z,76.50
2022-12-23T19:51:47.546Z,76.60
2022-12-23T19:54:15.613Z,75.50
2022-12-23T19:56:45.266Z,76.80
2022-12-23T19:59:13.430Z,76.60
2022-12-23T20:01:41.520Z,78.30
2022-12-23T20:04:11.188Z,77.80
2022-12-23T20:06:40.569Z,78.50
2022-12-23T20:09:10.441Z,78.70
2022-12-23T20:11:39.991Z,78.00
2022-12-23T20:14:10.058Z,78.40
2022-12-23T20:16:39.136Z,78.50
2022-12-23T20:19:07.779Z,78.80
2022-12-23T20:21:37.483Z,79.20
2022-12-23T20:24:06.129Z,79.10
2022-12-23T20:26:34.477Z,78.20
2022-12-23T20:29:02.508Z,78.70
2022-12-23T20:31:34.201Z,78.40
2022-12-23T20:34:03.286Z,79.30
2022-12-23T20:36:34.110Z,79.20
2022-12-23T20:39:03.440Z,79.00
2022-12-23T20:41:32.522Z,79.00
2022-12-23T20:44:33.318Z,80.00
2022-12-23T20:46:50.307Z,80.90
2022-12-23T20:49:18.359Z,81.80
2022-12-23T20:51:46.431Z,82.60
2022-12-23T20:54:14.425Z,82.20
2022-12-23T20:56:42.411Z,80.00
2022-12-23T20:59:10.436Z,79.30
2022-12-23T21:01:41.133Z,77.90
2022-12-23T21:04:13.091Z,73.10
2022-12-23T21:06:41.505Z,68.50
2022-12-23T21:09:12.295Z,68.40
2022-12-23T21:11:42.972Z,67.00
2022-12-23T21:14:11.812Z,65.50
2022-12-23T21:16:40.570Z,65.10
2022-12-23T21:19:14.726Z,61.40
2022-12-23T21:21:42.785Z,63.60
2022-12-23T21:24:11.904Z,62.80
2022-12-23T21:26:40.739Z,61.90
2022-12-23T21:29:11.142Z,64.20
2022-12-23T21:31:41.419Z,62.50
2022-12-23T21:34:14.219Z,63.30
2022-12-23T21:36:43.385Z,64.00
2022-12-23T21:39:14.643Z,63.00
2022-12-23T21:41:43.259Z,63.40
2022-12-23T21:44:13.563Z,62.90
2022-12-23T21:46:41.850Z,63.70
2022-12-23T21:49:12.073Z,63.80
2022-12-23T21:51:41.587Z,60.40
2022-12-23T21:54:11.546Z,61.40
2022-12-23T21:56:40.558Z,60.00
2022-12-23T21:59:11.643Z,61.10
2022-12-23T22:01:39.818Z,60.80
2022-12-23T22:04:07.925Z,60.00
2022-12-23T22:06:39.323Z,60.90
2022-12-23T22:09:09.051Z,60.30
2022-12-23T22:11:38.056Z,61.10
2022-12-23T22:14:08.461Z,63.30
2022-12-23T22:16:37.037Z,61.50
2022-12-23T22:19:08.382Z,59.80
2022-12-23T22:21:39.726Z,60.30
2022-12-23T22:24:08.610Z,61.10
2022-12-23T22:26:37.264Z,60.80
2022-12-23T22:29:07.113Z,57.40
2022-12-23T22:31:39.642Z,56.40
2022-12-23T22:34:09.308Z,56.30
2022-12-23T22:36:38.759Z,53.70
2022-12-23T22:39:08.005Z,53.20
2022-12-23T22:41:36.531Z,53.60
2022-12-23T22:44:04.705Z,51.20
2022-12-23T22:46:32.999Z,50.60
2022-12-23T22:49:01.093Z,50.70
2022-12-23T22:51:31.071Z,50.60
2022-12-23T22:54:02.750Z,50.60
2022-12-23T22:56:30.995Z,52.00
2022-12-23T22:58:59.410Z,50.50
2022-12-23T23:01:28.951Z,49.70
2022-12-23T23:03:58.613Z,49.60
2022-12-23T23:06:28.331Z,49.60
2022-12-23T23:08:57.158Z,48.00
2022-12-23T23:11:27.865Z,49.30
2022-12-23T23:13:56.585Z,47.90
2022-12-23T23:16:25.606Z,48.60
2022-12-23T23:18:54.592Z,48.60
2022-12-23T23:21:23.430Z,47.90
2022-12-23T23:23:51.565Z,48.30
2022-12-23T23:26:20.903Z,48.50
2022-12-23T23:28:50.332Z,49.90
2022-12-23T23:34:06.327Z,51.70
2022-12-23T23:36:34.426Z,52.50
2022-12-23T23:39:02.442Z,51.80
2022-12-23T23:41:30.470Z,52.50
2022-12-23T23:43:59.843Z,53.50
2022-12-23T23:46:27.863Z,54.70
2022-12-23T23:48:55.950Z,54.00
2022-12-23T23:51:23.998Z,55.30
2022-12-23T23:53:51.960Z,57.40
2022-12-23T23:56:25.117Z,56.30
2022-12-23T23:58:54.401Z,54.50
